Time;durP1;ratioP1;P1;durP2;ratioP2;P2;SDS_P1;SDS_P2;PMS_P1;PMS_P2;Temp;Humidity;BMP_temperature;BMP_pressure;BME280_temperature;BME280_humidity;BME280_pressure;Samples;Min_cycle;Max_cycle;Signal;HPM_P1;HPM_P2
2022/06/24 00:00:42;;;;;;;18.80;7.55;;;22.20;99.90;;;;;;4994366;28;20602;-57
2022/06/24 00:03:18;;;;;;;19.45;7.18;;;21.90;99.90;;;;;;4982876;28;20105;-59
2022/06/24 00:05:46;;;;;;;9.82;7.00;;;21.70;99.90;;;;;;5005203;28;20395;-59
2022/06/24 00:08:12;;;;;;;14.82;7.15;;;21.40;99.90;;;;;;5006365;28;20033;-58
2022/06/24 00:10:38;;;;;;;16.33;7.05;;;21.20;99.90;;;;;;5007886;28;20025;-56
2022/06/24 00:13:06;;;;;;;15.10;7.80;;;21.10;99.90;;;;;;4988430;28;20041;-57
2022/06/24 00:15:35;;;;;;;13.20;7.32;;;21.00;99.90;;;;;;5004747;28;20427;-59
2022/06/24 00:18:17;;;;;;;11.82;6.70;;;20.90;99.90;;;;;;5007282;28;20453;-57
2022/06/24 00:20:45;;;;;;;11.90;4.78;;;20.80;99.90;;;;;;5007954;28;20061;-57
2022/06/24 00:23:11;;;;;;;11.27;4.72;;;20.80;99.90;;;;;;4999710;28;20688;-59
2022/06/24 00:25:38;;;;;;;15.68;5.47;;;20.70;99.90;;;;;;5008423;28;20025;-56
2022/06/24 00:28:09;;;;;;;13.68;5.80;;;20.60;99.90;;;;;;5004403;28;20061;-57
2022/06/24 00:30:49;;;;;;;11.45;5.65;;;20.60;99.90;;;;;;5006718;28;20037;-57
2022/06/24 00:33:17;;;;;;;8.57;4.25;;;20.50;99.90;;;;;;5002507;28;20026;-55
2022/06/24 00:35:45;;;;;;;11.45;3.78;;;20.40;99.90;;;;;;5007764;28;20107;-56
2022/06/24 00:38:21;;;;;;;9.48;3.75;;;20.30;99.90;;;;;;5001297;28;20029;-59
2022/06/24 00:40:47;;;;;;;12.40;3.40;;;20.20;99.90;;;;;;5008367;28;20034;-60
2022/06/24 00:43:26;;;;;;;8.93;3.67;;;20.10;99.90;;;;;;4998568;28;20113;-59
2022/06/24 00:46:00;;;;;;;12.52;3.63;;;20.00;99.90;;;;;;4999009;28;20025;-57
2022/06/24 00:48:29;;;;;;;12.82;3.88;;;20.00;99.90;;;;;;5004305;28;20095;-58
2022/06/24 00:50:55;;;;;;;10.88;3.90;;;20.00;99.90;;;;;;5003109;28;20060;-59
2022/06/24 00:53:21;;;;;;;8.50;3.42;;;19.90;99.90;;;;;;5008375;28;20590;-60
2022/06/24 00:55:47;;;;;;;18.50;5.13;;;19.80;99.90;;;;;;5009832;28;20029;-53
2022/06/24 00:58:15;;;;;;;8.45;3.58;;;19.70;99.90;;;;;;5008738;28;20033;-59
2022/06/24 01:00:43;;;;;;;8.95;3.92;;;19.60;99.90;;;;;;5005424;28;20033;-59
2022/06/24 01:03:08;;;;;;;10.00;4.30;;;19.60;99.90;;;;;;5002039;28;20041;-58
2022/06/24 01:05:34;;;;;;;10.70;3.85;;;19.60;99.90;;;;;;5008050;28;20029;-57
2022/06/24 01:08:10;;;;;;;11.13;4.35;;;19.60;99.90;;;;;;5004539;28;20040;-57
2022/06/24 01:10:37;;;;;;;11.18;4.28;;;19.60;99.90;;;;;;5008204;28;20067;-59
2022/06/24 01:13:06;;;;;;;12.65;3.50;;;19.60;99.90;;;;;;4978288;28;20064;-58
2022/06/24 01:15:31;;;;;;;11.30;4.07;;;19.60;99.90;;;;;;5008053;28;20099;-58
2022/06/24 01:17:57;;;;;;;15.95;5.15;;;19.70;99.90;;;;;;5006164;28;20484;-59
2022/06/24 01:20:22;;;;;;;15.15;4.30;;;19.70;99.90;;;;;;5004744;28;20058;-57
2022/06/24 01:22:48;;;;;;;10.65;4.00;;;19.60;99.90;;;;;;5001678;28;20132;-60
2022/06/24 01:25:14;;;;;;;8.52;3.95;;;19.60;99.90;;;;;;5008636;28;20026;-60
2022/06/24 01:27:40;;;;;;;10.50;4.63;;;19.70;99.90;;;;;;5004855;28;20030;-59
2022/06/24 01:30:06;;;;;;;8.45;4.50;;;19.60;99.90;;;;;;5001960;28;20708;-56
2022/06/24 01:32:34;;;;;;;8.07;3.97;;;19.60;99.90;;;;;;5006728;28;20062;-60
2022/06/24 01:34:59;;;;;;;8.65;3.80;;;19.60;99.90;;;;;;5008954;28;20026;-58
2022/06/24 01:37:25;;;;;;;10.85;5.28;;;19.70;99.90;;;;;;5003262;28;20118;-58
2022/06/24 01:39:50;;;;;;;11.52;4.03;;;19.70;99.90;;;;;;5005755;28;20091;-59
2022/06/24 01:42:16;;;;;;;16.15;4.22;;;19.70;99.90;;;;;;4995230;28;20661;-58
2022/06/24 01:44:42;;;;;;;9.82;4.63;;;19.60;99.90;;;;;;4999020;28;20560;-59
2022/06/24 01:47:08;;;;;;;12.27;4.32;;;19.60;99.90;;;;;;5000006;28;20022;-60
2022/06/24 01:49:34;;;;;;;14.73;5.10;;;19.60;99.90;;;;;;4998207;28;20037;-59
2022/06/24 01:52:00;;;;;;;11.35;3.85;;;19.60;99.90;;;;;;5002212;28;20030;-51
2022/06/24 01:54:26;;;;;;;16.05;3.90;;;19.60;99.90;;;;;;4997422;28;20470;-58
2022/06/24 01:56:53;;;;;;;12.18;3.80;;;19.60;99.90;;;;;;5007741;28;20026;-60
2022/06/24 01:59:19;;;;;;;7.88;4.43;;;19.50;99.90;;;;;;5005650;28;20033;-57
2022/06/24 02:01:45;;;;;;;14.60;3.92;;;19.50;99.90;;;;;;5003797;28;20121;-58
2022/06/24 02:04:11;;;;;;;17.08;4.65;;;19.50;99.90;;;;;;4995681;28;20026;-51
2022/06/24 02:06:37;;;;;;;14.18;3.78;;;19.40;99.90;;;;;;5003932;28;20031;-57
2022/06/24 02:09:04;;;;;;;10.30;3.88;;;19.40;99.90;;;;;;4999334;28;20148;-58
2022/06/24 02:14:14;;;;;;;8.68;3.80;;;19.40;99.90;;;;;;4982928;28;20060;-57
2022/06/24 02:16:40;;;;;;;11.88;4.40;;;19.40;99.90;;;;;;5002124;28;20018;-54
2022/06/24 02:19:07;;;;;;;10.20;3.92;;;19.40;99.90;;;;;;5005874;28;20040;-59
2022/06/24 02:21:33;;;;;;;10.13;4.82;;;19.40;99.90;;;;;;5005372;28;20022;-57
2022/06/24 02:23:59;;;;;;;13.32;4.70;;;19.40;99.90;;;;;;5001710;28;20377;-56
2022/06/24 02:26:25;;;;;;;14.68;4.90;;;19.40;99.90;;;;;;5006338;28;20052;-57
2022/06/24 02:28:52;;;;;;;15.70;4.10;;;19.30;99.90;;;;;;4996888;28;20472;-58
2022/06/24 02:31:18;;;;;;;9.23;4.18;;;19.30;99.90;;;;;;5006404;28;20021;-58
2022/06/24 02:33:44;;;;;;;11.18;4.10;;;19.30;99.90;;;;;;5011182;28;20101;-57
2022/06/24 02:36:09;;;;;;;12.30;3.63;;;19.30;99.90;;;;;;5007713;28;20536;-52
2022/06/24 02:38:36;;;;;;;13.35;4.00;;;19.30;99.90;;;;;;5010235;28;20040;-58
2022/06/24 02:41:02;;;;;;;7.47;4.03;;;19.20;99.90;;;;;;5008292;28;20037;-59
2022/06/24 02:43:33;;;;;;;7.82;4.10;;;19.30;99.90;;;;;;5006060;28;20395;-58
2022/06/24 02:46:04;;;;;;;8.80;3.85;;;19.30;99.90;;;;;;5008187;28;20025;-58
2022/06/24 02:48:31;;;;;;;12.07;4.18;;;19.30;99.90;;;;;;5001375;28;20033;-57
2022/06/24 02:51:01;;;;;;;13.32;4.50;;;19.30;99.90;;;;;;5003541;28;20011;-59
2022/06/24 02:53:28;;;;;;;11.52;3.95;;;19.30;99.90;;;;;;5006265;28;20048;-60
2022/06/24 02:55:56;;;;;;;9.80;4.68;;;19.20;99.90;;;;;;5009729;28;20079;-58
2022/06/24 02:58:22;;;;;;;10.82;3.75;;;19.20;99.90;;;;;;5005828;28;20581;-59
2022/06/24 03:00:48;;;;;;;10.20;3.83;;;19.20;99.90;;;;;;5012459;28;20483;-59
2022/06/24 03:03:16;;;;;;;10.50;3.88;;;19.10;99.90;;;;;;5002064;28;20033;-58
2022/06/24 03:05:43;;;;;;;9.88;4.68;;;19.10;99.90;;;;;;5005077;28;20112;-59
2022/06/24 03:08:11;;;;;;;10.85;4.00;;;19.10;99.90;;;;;;5010298;28;20030;-50
2022/06/24 03:10:37;;;;;;;13.77;4.18;;;19.10;99.90;;;;;;5008917;28;20088;-58
2022/06/24 03:13:03;;;;;;;11.57;4.03;;;19.10;99.90;;;;;;4988316;28;20054;-60
2022/06/24 03:15:29;;;;;;;11.90;3.67;;;19.10;99.90;;;;;;5002559;28;20080;-58
2022/06/24 03:17:55;;;;;;;6.97;3.47;;;19.10;99.90;;;;;;5006875;28;20030;-59
2022/06/24 03:20:21;;;;;;;7.57;3.25;;;19.10;99.90;;;;;;5009083;28;20050;-57
2022/06/24 03:22:47;;;;;;;8.32;4.03;;;19.20;99.90;;;;;;5009681;28;20496;-60
2022/06/24 03:25:12;;;;;;;11.45;4.80;;;19.20;99.90;;;;;;5009058;28;20107;-60
2022/06/24 03:27:38;;;;;;;8.68;3.35;;;19.20;99.90;;;;;;5011709;28;20018;-60
2022/06/24 03:30:06;;;;;;;10.45;3.78;;;19.20;99.90;;;;;;5006118;28;20105;-60
2022/06/24 03:32:32;;;;;;;9.95;3.15;;;19.30;99.90;;;;;;5007518;28;20127;-59
2022/06/24 03:34:58;;;;;;;8.20;3.20;;;19.30;99.90;;;;;;5006299;28;20022;-60
2022/06/24 03:37:23;;;;;;;11.85;3.38;;;19.40;99.90;;;;;;5006912;28;20034;-57
2022/06/24 03:39:49;;;;;;;8.90;3.30;;;19.40;99.90;;;;;;5004145;28;20030;-59
2022/06/24 03:42:15;;;;;;;7.47;3.25;;;19.30;99.90;;;;;;5007833;28;20034;-59
2022/06/24 03:44:40;;;;;;;12.23;4.05;;;19.30;99.90;;;;;;5010534;28;20422;-58
2022/06/24 03:47:06;;;;;;;9.95;4.30;;;19.30;99.90;;;;;;5000117;28;20551;-59
2022/06/24 03:49:31;;;;;;;11.80;3.90;;;19.20;99.90;;;;;;5004730;28;20373;-58
2022/06/24 03:51:57;;;;;;;12.95;4.05;;;19.20;99.90;;;;;;5009774;28;20511;-58
2022/06/24 03:54:23;;;;;;;9.63;3.30;;;19.20;99.90;;;;;;5008328;28;20021;-59
2022/06/24 03:56:48;;;;;;;7.55;3.70;;;19.20;99.90;;;;;;5004831;28;20034;-57
2022/06/24 03:59:14;;;;;;;9.55;3.33;;;19.20;99.90;;;;;;5004678;28;20030;-59
2022/06/24 04:01:40;;;;;;;11.18;3.70;;;19.20;99.90;;;;;;4999944;28;20506;-59
2022/06/24 04:04:05;;;;;;;15.23;4.65;;;19.20;99.90;;;;;;5000860;28;20510;-60
2022/06/24 04:06:31;;;;;;;9.38;3.22;;;19.10;99.90;;;;;;5003514;28;20041;-57
2022/06/24 04:08:57;;;;;;;8.43;3.30;;;19.10;99.90;;;;;;5008614;28;20036;-59
2022/06/24 04:11:23;;;;;;;8.95;4.00;;;19.10;99.90;;;;;;5008166;28;20032;-60
2022/06/24 04:13:49;;;;;;;9.40;3.85;;;19.10;99.90;;;;;;4989258;28;20038;-61
2022/06/24 04:16:15;;;;;;;7.20;3.78;;;19.20;99.90;;;;;;4998381;28;20030;-60
2022/06/24 04:18:41;;;;;;;12.32;3.65;;;19.10;99.90;;;;;;5006698;28;20034;-58
2022/06/24 04:21:17;;;;;;;8.38;3.72;;;19.20;99.90;;;;;;5005164;28;20029;-59
2022/06/24 04:23:44;;;;;;;12.00;4.45;;;19.20;99.90;;;;;;5001897;28;20053;-59
2022/06/24 04:26:11;;;;;;;5.75;2.42;;;19.10;99.90;;;;;;5009441;28;20487;-51
2022/06/24 04:28:37;;;;;;;6.05;3.00;;;19.10;99.90;;;;;;5006409;28;20391;-59
2022/06/24 04:31:03;;;;;;;9.05;3.03;;;19.00;99.90;;;;;;5008370;28;20452;-60
2022/06/24 04:33:29;;;;;;;8.93;3.00;;;19.00;99.90;;;;;;5001648;28;20070;-57
2022/06/24 04:35:54;;;;;;;14.60;4.00;;;19.10;99.90;;;;;;5007697;28;20396;-59
2022/06/24 04:38:20;;;;;;;10.50;3.03;;;19.10;99.90;;;;;;5000127;28;20026;-59
2022/06/24 04:40:46;;;;;;;7.07;2.83;;;19.00;99.90;;;;;;5007442;28;20113;-60
2022/06/24 04:43:12;;;;;;;7.63;3.20;;;19.00;99.90;;;;;;5007494;28;20053;-55
2022/06/24 04:45:38;;;;;;;6.03;2.70;;;19.00;99.90;;;;;;5004821;28;20042;-59
2022/06/24 04:48:05;;;;;;;11.20;3.10;;;19.10;99.90;;;;;;5007989;28;20062;-58
2022/06/24 04:50:31;;;;;;;5.70;2.75;;;19.00;99.90;;;;;;5000365;28;20062;-59
2022/06/24 04:52:57;;;;;;;12.30;4.55;;;19.10;99.90;;;;;;5006692;28;20045;-54
2022/06/24 04:55:22;;;;;;;6.88;2.97;;;19.10;99.90;;;;;;5007044;28;20026;-59
2022/06/24 04:57:48;;;;;;;5.90;3.30;;;19.00;99.90;;;;;;5000276;28;20512;-58
2022/06/24 05:00:15;;;;;;;11.15;4.10;;;19.00;99.90;;;;;;5006144;28;20022;-58
2022/06/24 05:02:42;;;;;;;8.07;4.35;;;19.00;99.90;;;;;;4997582;28;20127;-58
2022/06/24 05:05:09;;;;;;;9.05;2.83;;;19.00;99.90;;;;;;5006982;28;20044;-59
2022/06/24 05:07:35;;;;;;;7.65;2.88;;;19.10;99.90;;;;;;5002993;28;20108;-58
2022/06/24 05:10:01;;;;;;;14.50;3.25;;;19.00;99.90;;;;;;5002347;28;20038;-59
2022/06/24 05:12:27;;;;;;;8.05;2.60;;;19.00;99.90;;;;;;4995855;28;20018;-59
2022/06/24 05:14:52;;;;;;;7.63;2.95;;;19.10;99.90;;;;;;4985109;28;20073;-59
2022/06/24 05:17:18;;;;;;;8.82;4.18;;;19.20;99.90;;;;;;4999661;28;20104;-57
2022/06/24 05:19:44;;;;;;;5.85;2.75;;;19.20;99.90;;;;;;5004665;28;20034;-57
2022/06/24 05:22:09;;;;;;;5.47;2.30;;;19.30;99.90;;;;;;4992331;28;20029;-56
2022/06/24 05:24:35;;;;;;;8.65;2.90;;;19.30;99.90;;;;;;5005899;28;20040;-58
2022/06/24 05:27:01;;;;;;;6.18;2.47;;;19.50;99.90;;;;;;5008317;28;21773;-57
2022/06/24 05:29:26;;;;;;;5.28;2.20;;;19.60;99.90;;;;;;5000205;28;20030;-58
2022/06/24 05:31:52;;;;;;;6.22;2.45;;;19.60;99.90;;;;;;5003969;28;20045;-59
2022/06/24 05:34:18;;;;;;;8.07;2.25;;;19.60;99.90;;;;;;5003297;28;20023;-60
2022/06/24 05:36:43;;;;;;;8.40;2.80;;;19.50;99.90;;;;;;5009304;28;20464;-59
2022/06/24 05:39:10;;;;;;;6.57;1.92;;;19.60;99.90;;;;;;5001396;28;20042;-60
2022/06/24 05:41:39;;;;;;;10.05;2.58;;;19.70;99.90;;;;;;5009124;28;20069;-60
2022/06/24 05:44:05;;;;;;;8.85;2.63;;;19.70;99.90;;;;;;5006070;28;20022;-60
2022/06/24 05:46:30;;;;;;;11.25;2.50;;;19.70;99.90;;;;;;5008780;28;20037;-60
2022/06/24 05:48:57;;;;;;;7.22;2.28;;;19.70;99.90;;;;;;5002472;28;20517;-58
2022/06/24 05:51:23;;;;;;;4.60;1.88;;;19.70;99.90;;;;;;5008006;28;20060;-57
2022/06/24 05:56:33;;;;;;;6.45;2.40;;;19.70;99.90;;;;;;5004011;28;20061;-59
2022/06/24 05:58:59;;;;;;;8.68;2.50;;;19.70;99.90;;;;;;5005586;28;20483;-57
2022/06/24 06:01:26;;;;;;;7.03;2.65;;;19.80;99.90;;;;;;4997580;28;20523;-55
2022/06/24 06:03:52;;;;;;;8.65;2.22;;;19.80;99.90;;;;;;5005540;28;20022;-59
2022/06/24 06:06:18;;;;;;;9.18;2.20;;;19.90;99.90;;;;;;5002654;28;20025;-58
2022/06/24 06:08:44;;;;;;;4.25;1.40;;;20.00;99.90;;;;;;5009537;28;20109;-52
2022/06/24 06:11:21;;;;;;;6.93;2.42;;;20.20;99.90;;;;;;5010988;28;20017;-59
2022/06/24 06:13:48;;;;;;;6.70;2.35;;;20.30;99.90;;;;;;4986416;28;20046;-58
2022/06/24 06:16:14;;;;;;;7.60;2.17;;;20.50;99.90;;;;;;5001746;28;20033;-56
2022/06/24 06:18:40;;;;;;;9.10;2.17;;;20.70;99.90;;;;;;5006075;28;20443;-60
2022/06/24 06:21:09;;;;;;;5.40;1.70;;;20.70;99.90;;;;;;5011323;28;20030;-59
2022/06/24 06:23:37;;;;;;;6.10;2.20;;;20.80;99.90;;;;;;4996144;28;20068;-59
2022/06/24 06:26:04;;;;;;;7.25;1.75;;;21.10;99.90;;;;;;5010159;28;20026;-59
2022/06/24 06:28:30;;;;;;;3.60;2.00;;;21.00;99.90;;;;;;5009290;28;20030;-59
2022/06/24 06:30:56;;;;;;;5.50;1.90;;;21.20;99.90;;;;;;5010106;28;20034;-60
2022/06/24 06:33:21;;;;;;;4.55;1.98;;;21.20;99.90;;;;;;5007350;28;20440;-59
2022/06/24 06:35:47;;;;;;;7.00;1.90;;;21.40;99.90;;;;;;5009404;28;20026;-59
2022/06/24 06:38:13;;;;;;;7.70;1.80;;;21.80;99.90;;;;;;5010216;28;20619;-51
2022/06/24 06:40:39;;;;;;;6.80;2.00;;;22.10;99.90;;;;;;5003679;28;20030;-59
2022/06/24 06:43:05;;;;;;;6.32;1.52;;;22.60;99.90;;;;;;5010891;28;20029;-57
2022/06/24 06:45:32;;;;;;;7.18;1.50;;;23.10;99.90;;;;;;5006128;28;20029;-59
2022/06/24 06:47:58;;;;;;;4.20;1.40;;;23.40;99.90;;;;;;5007888;28;20076;-60
2022/06/24 06:50:24;;;;;;;6.72;1.67;;;23.90;99.90;;;;;;5003359;28;20058;-60
2022/06/24 06:52:49;;;;;;;8.20;1.90;;;24.00;99.90;;;;;;5007781;28;20108;-59
2022/06/24 06:55:15;;;;;;;3.67;1.55;;;24.20;99.90;;;;;;5008279;28;20053;-57
2022/06/24 06:57:41;;;;;;;10.13;1.48;;;24.20;99.90;;;;;;5006478;28;20572;-58
2022/06/24 07:00:09;;;;;;;8.27;1.70;;;24.00;99.90;;;;;;5009773;28;20117;-58
2022/06/24 07:02:35;;;;;;;8.48;1.40;;;23.80;99.90;;;;;;5004868;28;20036;-58
2022/06/24 07:05:01;;;;;;;5.68;1.80;;;23.80;99.90;;;;;;5012014;28;20037;-59
2022/06/24 07:07:27;;;;;;;8.38;2.13;;;23.70;99.90;;;;;;5007498;28;20071;-59
2022/06/24 07:09:54;;;;;;;3.55;1.38;;;23.70;99.90;;;;;;5006808;28;20213;-60
2022/06/24 07:12:20;;;;;;;4.88;1.52;;;24.60;99.90;;;;;;5008923;28;20104;-59
2022/06/24 07:14:46;;;;;;;6.63;1.60;;;25.80;99.90;;;;;;4988800;28;20500;-59
2022/06/24 07:17:11;;;;;;;7.85;2.00;;;26.20;99.90;;;;;;5005848;28;20034;-60
2022/06/24 07:19:37;;;;;;;7.68;1.27;;;26.10;99.90;;;;;;5012184;28;20080;-60
2022/06/24 07:22:04;;;;;;;3.95;1.42;;;25.70;99.90;;;;;;5009535;28;20073;-59
2022/06/24 07:24:29;;;;;;;7.97;1.85;;;24.70;99.90;;;;;;5002664;28;20048;-60
2022/06/24 07:26:55;;;;;;;6.00;1.70;;;24.40;99.90;;;;;;5010655;28;20033;-58
2022/06/24 07:29:21;;;;;;;4.45;1.50;;;23.90;99.90;;;;;;5007995;28;20026;-60
2022/06/24 07:31:47;;;;;;;10.30;2.38;;;23.60;99.90;;;;;;4996471;28;20514;-58
2022/06/24 07:34:16;;;;;;;8.35;1.80;;;23.70;99.90;;;;;;5007366;28;20418;-51
2022/06/24 07:36:42;;;;;;;7.85;1.73;;;24.00;99.90;;;;;;5004084;28;20026;-61
2022/06/24 07:39:09;;;;;;;6.60;1.50;;;24.50;99.90;;;;;;5009487;28;20029;-59
2022/06/24 07:41:35;;;;;;;5.13;1.77;;;24.40;99.90;;;;;;5004865;28;20100;-58
2022/06/24 07:44:00;;;;;;;8.13;2.72;;;24.80;99.90;;;;;;5001908;28;20042;-60
2022/06/24 07:46:27;;;;;;;6.07;1.73;;;24.80;99.90;;;;;;4999876;28;20034;-60
2022/06/24 07:48:53;;;;;;;8.13;2.10;;;24.90;99.90;;;;;;5008711;28;20080;-61
2022/06/24 07:51:19;;;;;;;8.05;1.90;;;25.00;99.90;;;;;;5004539;28;20018;-60
2022/06/24 07:53:47;;;;;;;7.53;1.73;;;25.60;99.90;;;;;;5008005;28;20161;-60
2022/06/24 07:59:00;;;;;;;10.40;2.92;;;25.70;99.90;;;;;;5002328;28;20107;-60
2022/06/24 08:01:26;;;;;;;5.60;1.92;;;25.20;99.90;;;;;;5008079;28;20403;-60
2022/06/24 08:03:51;;;;;;;5.95;2.00;;;25.00;99.90;;;;;;5004079;28;20101;-60
2022/06/24 08:06:17;;;;;;;6.68;2.05;;;24.40;99.90;;;;;;4994813;28;20114;-58
2022/06/24 08:08:43;;;;;;;7.63;2.08;;;24.00;99.90;;;;;;5006826;28;20036;-58
2022/06/24 08:11:09;;;;;;;7.63;1.73;;;23.40;99.90;;;;;;5002882;28;20172;-58
2022/06/24 08:13:34;;;;;;;7.30;1.90;;;23.20;99.90;;;;;;5001959;28;20022;-57
2022/06/24 08:16:01;;;;;;;9.13;1.95;;;22.90;99.90;;;;;;4986097;28;20038;-58
2022/06/24 08:18:27;;;;;;;12.60;2.38;;;22.50;99.90;;;;;;5001328;28;20403;-61
2022/06/24 08:20:53;;;;;;;8.85;2.05;;;21.90;99.90;;;;;;5008757;28;20030;-59
2022/06/24 08:23:19;;;;;;;10.77;2.00;;;21.00;99.90;;;;;;5001199;28;20050;-58
2022/06/24 08:25:44;;;;;;;7.63;1.63;;;20.30;99.90;;;;;;5008163;28;20033;-58
2022/06/24 08:28:10;;;;;;;3.53;1.85;;;20.00;99.90;;;;;;5002033;28;20025;-58
2022/06/24 08:30:36;;;;;;;4.80;2.03;;;19.70;99.90;;;;;;5006226;28;20033;-59
2022/06/24 08:33:02;;;;;;;5.93;2.20;;;19.60;99.90;;;;;;5006329;28;20034;-58
2022/06/24 08:35:28;;;;;;;4.25;2.63;;;19.50;99.90;;;;;;5001031;28;20022;-57
2022/06/24 08:37:54;;;;;;;3.97;3.55;;;19.40;99.90;;;;;;5002636;28;20022;-59
2022/06/24 08:40:21;;;;;;;4.78;3.38;;;19.20;99.90;;;;;;5004722;28;20044;-57
2022/06/24 08:42:55;;;;;;;5.55;3.60;;;19.20;99.90;;;;;;5000458;28;20403;-56
2022/06/24 08:45:22;;;;;;;4.60;3.33;;;19.20;99.90;;;;;;5007098;28;20087;-54
2022/06/24 08:47:48;;;;;;;5.53;3.45;;;19.40;99.90;;;;;;5001482;28;20029;-59
2022/06/24 08:50:15;;;;;;;4.53;3.88;;;19.40;99.90;;;;;;5008997;28;20034;-54
2022/06/24 08:52:49;;;;;;;6.88;4.88;;;19.50;99.90;;;;;;5001440;28;20022;-56
2022/06/24 08:55:19;;;;;;;10.75;4.57;;;19.30;99.90;;;;;;5005369;28;20108;-60
2022/06/24 08:57:48;;;;;;;6.22;4.85;;;19.30;99.90;;;;;;5000851;28;20034;-58
2022/06/24 09:00:14;;;;;;;6.03;5.43;;;19.30;99.90;;;;;;5008000;28;20026;-52
2022/06/24 09:02:40;;;;;;;8.30;6.03;;;19.20;99.90;;;;;;5006511;28;20032;-56
2022/06/24 09:05:11;;;;;;;12.45;6.65;;;19.30;99.90;;;;;;5001817;28;20419;-59
2022/06/24 09:07:36;;;;;;;8.32;5.97;;;19.30;99.90;;;;;;4997458;28;20032;-56
2022/06/24 09:10:11;;;;;;;7.22;6.13;;;19.20;99.90;;;;;;5007892;28;20030;-60
2022/06/24 09:12:39;;;;;;;14.43;6.63;;;19.40;99.90;;;;;;5006053;28;20026;-60
2022/06/24 09:15:07;;;;;;;8.07;5.85;;;19.60;99.90;;;;;;5006524;28;20052;-59
2022/06/24 09:17:34;;;;;;;7.35;5.57;;;19.70;99.90;;;;;;5005951;28;20057;-60
2022/06/24 09:20:21;;;;;;;10.60;5.25;;;19.80;99.90;;;;;;5007114;28;20030;-59
2022/06/24 09:22:48;;;;;;;6.53;4.63;;;19.90;99.90;;;;;;5000846;28;20109;-59
2022/06/24 09:25:14;;;;;;;6.80;4.72;;;20.00;99.90;;;;;;5007061;28;20113;-56
2022/06/24 09:27:46;;;;;;;6.28;4.65;;;20.20;99.90;;;;;;5007498;28;20112;-60
2022/06/24 09:30:16;;;;;;;5.15;3.78;;;20.20;99.90;;;;;;5002390;28;20026;-58
2022/06/24 09:32:51;;;;;;;9.48;4.00;;;20.20;99.90;;;;;;5007224;28;20021;-58
2022/06/24 09:35:18;;;;;;;5.10;3.58;;;20.50;99.90;;;;;;4998533;28;20082;-58
2022/06/24 09:37:47;;;;;;;5.07;3.28;;;20.60;99.90;;;;;;5001711;28;20054;-57
2022/06/24 09:40:28;;;;;;;6.10;3.15;;;21.00;99.90;;;;;;5005611;28;20034;-57
2022/06/24 09:43:01;;;;;;;7.35;3.55;;;21.20;99.90;;;;;;5007353;28;20041;-57
2022/06/24 09:45:45;;;;;;;6.55;2.97;;;21.20;99.90;;;;;;5002119;28;20078;-59
2022/06/24 09:48:12;;;;;;;8.05;3.28;;;21.40;99.90;;;;;;5006491;28;20026;-57
2022/06/24 09:50:40;;;;;;;3.40;3.10;;;21.50;99.90;;;;;;5005162;28;20053;-59
2022/06/24 09:53:07;;;;;;;6.35;3.70;;;21.70;99.90;;;;;;5007511;28;20084;-61
2022/06/24 09:55:33;;;;;;;5.55;3.17;;;22.10;99.90;;;;;;5011508;28;20022;-60
2022/06/24 09:57:59;;;;;;;6.93;4.10;;;22.30;99.90;;;;;;5005179;28;20031;-59
2022/06/24 10:00:41;;;;;;;5.03;2.92;;;22.90;99.90;;;;;;5009079;28;20054;-60
2022/06/24 10:03:09;;;;;;;3.22;2.60;;;23.90;99.90;;;;;;5003009;28;20076;-60
2022/06/24 10:05:37;;;;;;;5.70;2.63;;;24.60;99.90;;;;;;5003473;28;20120;-50
2022/06/24 10:08:06;;;;;;;3.03;2.60;;;25.00;99.90;;;;;;5005047;28;20030;-58
2022/06/24 10:10:35;;;;;;;4.13;3.03;;;24.80;99.90;;;;;;5005898;28;20030;-59
2022/06/24 10:13:06;;;;;;;3.22;2.78;;;24.60;99.90;;;;;;5007049;28;20076;-59
2022/06/24 10:15:32;;;;;;;6.88;3.15;;;24.70;99.90;;;;;;5010957;28;20475;-58
2022/06/24 10:17:59;;;;;;;4.22;3.17;;;24.30;99.90;;;;;;5007927;28;20030;-60
2022/06/24 10:20:25;;;;;;;3.15;2.67;;;24.30;99.90;;;;;;5004576;28;20026;-59
2022/06/24 10:22:51;;;;;;;5.72;2.88;;;24.30;99.90;;;;;;5003475;28;20018;-59
2022/06/24 10:25:48;;;;;;;4.75;3.05;;;24.70;99.90;;;;;;5004436;28;20022;-59
2022/06/24 10:28:15;;;;;;;7.28;3.55;;;25.30;99.90;;;;;;5005762;28;20057;-55
2022/06/24 10:30:40;;;;;;;7.10;3.05;;;25.70;99.90;;;;;;5006021;28;20117;-60
2022/06/24 10:33:21;;;;;;;5.93;2.78;;;25.80;99.90;;;;;;5008728;28;20104;-57
2022/06/24 10:36:04;;;;;;;3.47;2.40;;;25.90;99.90;;;;;;5005442;28;20030;-58
2022/06/24 10:38:41;;;;;;;6.13;2.50;;;26.20;99.90;;;;;;5002421;28;20060;-57
2022/06/24 10:41:10;;;;;;;4.65;2.17;;;27.00;99.90;;;;;;5007722;28;20026;-59
2022/06/24 10:43:40;;;;;;;6.95;2.15;;;27.30;99.90;;;;;;5005889;28;20084;-58
2022/06/24 10:46:12;;;;;;;4.22;2.63;;;26.80;99.60;;;;;;5009835;28;20062;-61
2022/06/24 10:48:59;;;;;;;7.40;2.72;;;26.30;99.90;;;;;;5004256;28;20484;-59
2022/06/24 10:51:28;;;;;;;4.68;2.22;;;25.70;99.90;;;;;;5005177;28;20045;-60
2022/06/24 10:54:02;;;;;;;3.47;2.20;;;25.10;99.70;;;;;;5008724;28;20029;-58
2022/06/24 10:56:40;;;;;;;3.83;2.95;;;24.50;99.90;;;;;;5008420;28;20025;-59
2022/06/24 10:59:06;;;;;;;6.93;3.17;;;24.40;99.90;;;;;;5005441;28;20529;-57
2022/06/24 11:01:32;;;;;;;5.80;3.22;;;23.90;99.90;;;;;;5007482;28;20109;-54
2022/06/24 11:04:04;;;;;;;3.22;2.28;;;23.90;99.90;;;;;;5007867;28;20025;-58
2022/06/24 11:06:30;;;;;;;4.00;2.47;;;23.90;99.90;;;;;;5007582;28;20022;-58
2022/06/24 11:09:05;;;;;;;2.97;2.30;;;24.10;99.90;;;;;;5005702;28;20116;-54
2022/06/24 11:11:32;;;;;;;5.25;3.13;;;24.60;99.90;;;;;;5007536;28;20025;-57
2022/06/24 11:13:58;;;;;;;3.53;2.75;;;25.20;99.90;;;;;;5008804;28;20096;-54
2022/06/24 11:16:28;;;;;;;4.78;2.85;;;25.90;99.90;;;;;;5008351;28;20634;-58
2022/06/24 11:18:54;;;;;;;3.70;2.50;;;26.50;99.90;;;;;;5007888;28;20025;-55
2022/06/24 11:21:19;;;;;;;4.85;2.47;;;26.90;99.80;;;;;;5003305;28;20069;-56
2022/06/24 11:23:47;;;;;;;4.63;2.85;;;26.90;97.20;;;;;;5005777;28;20261;-59
2022/06/24 11:26:18;;;;;;;5.68;2.63;;;27.30;97.20;;;;;;5006802;28;20054;-58
2022/06/24 11:28:52;;;;;;;5.20;2.53;;;27.10;98.30;;;;;;5008032;28;20026;-60
2022/06/24 11:31:28;;;;;;;5.18;2.55;;;26.90;96.10;;;;;;5007369;28;20021;-59
2022/06/24 11:34:03;;;;;;;4.90;2.53;;;26.80;94.40;;;;;;5004704;28;20554;-57
2022/06/24 11:36:31;;;;;;;6.50;1.63;;;27.00;96.00;;;;;;5007531;28;20567;-56
2022/06/24 11:38:58;;;;;;;5.22;2.72;;;26.50;96.40;;;;;;5005330;28;20025;-57
2022/06/24 11:41:32;;;;;;;3.47;2.30;;;26.50;99.10;;;;;;5008370;28;20022;-58
2022/06/24 11:43:58;;;;;;;9.25;2.20;;;26.20;97.70;;;;;;5006471;28;20026;-59
2022/06/24 11:46:24;;;;;;;4.88;2.30;;;26.30;98.00;;;;;;5005911;28;20033;-59
2022/06/24 11:49:05;;;;;;;3.58;2.42;;;26.40;98.10;;;;;;5006171;28;20049;-58
2022/06/24 11:51:31;;;;;;;3.47;2.30;;;26.50;97.50;;;;;;5006971;28;20050;-60
2022/06/24 11:54:04;;;;;;;3.25;2.42;;;26.40;98.70;;;;;;5004676;28;20025;-59
2022/06/24 11:56:35;;;;;;;5.97;3.45;;;26.60;96.10;;;;;;5003376;28;20022;-60
2022/06/24 11:59:05;;;;;;;5.10;2.80;;;26.00;96.20;;;;;;5004841;28;20044;-58
2022/06/24 12:01:32;;;;;;;2.15;1.90;;;26.30;95.80;;;;;;5004624;28;20038;-60
2022/06/24 12:04:06;;;;;;;4.53;2.38;;;26.30;96.40;;;;;;5001823;28;20566;-59
2022/06/24 12:06:33;;;;;;;6.35;2.97;;;26.10;97.30;;;;;;5008367;28;20038;-59
2022/06/24 12:08:59;;;;;;;5.35;2.75;;;25.90;97.00;;;;;;5005872;28;20143;-57
2022/06/24 12:11:24;;;;;;;6.43;3.10;;;25.60;99.90;;;;;;5004701;28;20395;-58
2022/06/24 12:13:58;;;;;;;6.85;2.70;;;25.80;98.20;;;;;;5004608;28;20017;-59
2022/06/24 12:16:28;;;;;;;6.22;3.08;;;26.60;98.50;;;;;;5002694;28;20049;-54
2022/06/24 12:18:55;;;;;;;4.65;3.35;;;26.60;97.50;;;;;;5003837;28;20471;-58
2022/06/24 12:21:28;;;;;;;4.53;2.80;;;27.00;96.80;;;;;;5002015;28;20428;-58
2022/06/24 12:23:54;;;;;;;4.70;2.85;;;27.00;97.30;;;;;;5003689;28;20559;-59
2022/06/24 12:26:23;;;;;;;5.10;3.03;;;26.70;96.70;;;;;;5006299;28;20503;-56
2022/06/24 12:29:05;;;;;;;7.30;2.97;;;26.50;97.90;;;;;;5000595;28;20096;-57
2022/06/24 12:31:31;;;;;;;3.75;2.60;;;26.60;97.20;;;;;;5003916;28;20030;-58
2022/06/24 12:33:59;;;;;;;4.18;2.95;;;26.50;96.30;;;;;;5004755;28;20067;-58
2022/06/24 12:36:41;;;;;;;5.57;3.20;;;26.50;96.50;;;;;;5004761;28;20026;-57
2022/06/24 12:39:09;;;;;;;5.50;3.78;;;27.20;95.50;;;;;;5002398;28;20555;-60
2022/06/24 12:41:48;;;;;;;3.92;3.33;;;27.40;94.00;;;;;;5003996;28;20041;-57
2022/06/24 12:44:15;;;;;;;7.07;3.22;;;27.10;95.30;;;;;;5000097;28;20069;-58
2022/06/24 12:52:34;;;;;;;7.50;2.80;;;27.30;95.90;;;;;;5005279;28;20120;-59
2022/06/24 12:55:00;;;;;;;4.63;2.95;;;27.40;94.30;;;;;;5000636;28;20479;-59
2022/06/24 12:57:25;;;;;;;7.05;2.80;;;27.10;93.30;;;;;;5006606;28;20042;-58
2022/06/24 12:59:51;;;;;;;4.28;2.40;;;27.60;93.30;;;;;;5000980;28;20499;-59